METAR Data
IDs: Format: Raw Decoded Include TAF

Data at: 1214 UTC 17 Sep 2019

METAR for:PAOU (Nelson Lagoon Arpt, AK, US)
Text:PAOU 171156Z AUTO 16014KT 10SM -RA BKN048 OVC070 12/11 A2971 RMK AO2 RAB27 SLP059 6//// 7//// T01220106 10122 20111 56033 PNO $
Temperature: 12.2°C ( 54°F)
Dewpoint: 10.6°C ( 51°F) [RH = 90%]
Pressure (altimeter):29.71 inches Hg (1006.2 mb) [Sea level pressure: 1005.9 mb]
Winds:from the SSE (160 degrees) at 16 MPH (14 knots; 7.2 m/s)
Visibility:10 or more sm (16+ km)
Ceiling:4800 feet AGL
Clouds: broken clouds at 4800 feet AGL, overcast cloud deck at 7000 feet AGL
Weather:-RA (light rain)
QC Flag:automated observation with no human augmentation; SOME DATA ABOVE MAY BE INACCURATE!!!"$" is an indication the sensor requires maintenance.
Text:PAOU 171056Z AUTO 16013KT 10SM SCT023 BKN047 OVC060 12/10 A2974 RMK AO2 SLP069 T01220100 PNO $
Temperature: 12.2°C ( 54°F)
Dewpoint: 10.0°C ( 50°F) [RH = 86%]
Pressure (altimeter):29.74 inches Hg (1007.2 mb) [Sea level pressure: 1006.9 mb]
Winds:from the SSE (160 degrees) at 15 MPH (13 knots; 6.7 m/s)
Visibility:10 or more sm (16+ km)
Ceiling:4700 feet AGL
Clouds: scattered clouds at 2300 feet AGL, broken clouds at 4700 feet AGL, overcast cloud deck at 6000 feet AGL
QC Flag:automated observation with no human augmentation; SOME DATA ABOVE MAY BE INACCURATE!!!"$" is an indication the sensor requires maintenance.
Text:PAOU 171005Z AUTO 14017KT 10SM SCT026 BKN043 BKN085 12/10 A2975 RMK AO2 PNO $
Temperature: 12.0°C ( 54°F)
Dewpoint: 10.0°C ( 50°F) [RH = 88%]
Pressure (altimeter):29.75 inches Hg (1007.5 mb)
Winds:from the SE (140 degrees) at 20 MPH (17 knots; 8.7 m/s)
Visibility:10 or more sm (16+ km)
Ceiling:4300 feet AGL
Clouds: scattered clouds at 2600 feet AGL, broken clouds at 4300 feet AGL, broken clouds at 8500 feet AGL
QC Flag:automated observation with no human augmentation; SOME DATA ABOVE MAY BE INACCURATE!!!"$" is an indication the sensor requires maintenance.
Text:PAOU 170956Z AUTO 14016KT 10SM FEW003 BKN026 BKN043 12/10 A2976 RMK AO2 RAE27 SLP076 T01170100 PNO $
Temperature: 11.7°C ( 53°F)
Dewpoint: 10.0°C ( 50°F) [RH = 89%]
Pressure (altimeter):29.76 inches Hg (1007.9 mb) [Sea level pressure: 1007.6 mb]
Winds:from the SE (140 degrees) at 18 MPH (16 knots; 8.2 m/s)
Visibility:10 or more sm (16+ km)
Ceiling:2600 feet AGL
Clouds: few clouds at 300 feet AGL, broken clouds at 2600 feet AGL, broken clouds at 4300 feet AGL
QC Flag:automated observation with no human augmentation; SOME DATA ABOVE MAY BE INACCURATE!!!"$" is an indication the sensor requires maintenance.
Text:PAOU 170926Z AUTO 13012KT 10SM -RA SCT003 OVC026 11/11 A2979 RMK AO2 PNO $
Temperature: 11.0°C ( 52°F)
Dewpoint: 11.0°C ( 52°F) [RH = 100%]
Pressure (altimeter):29.79 inches Hg (1008.9 mb)
Winds:from the SE (130 degrees) at 14 MPH (12 knots; 6.2 m/s)
Visibility:10 or more sm (16+ km)
Ceiling:2600 feet AGL
Clouds: scattered clouds at 300 feet AGL, overcast cloud deck at 2600 feet AGL
Weather:-RA (light rain)
QC Flag:automated observation with no human augmentation; SOME DATA ABOVE MAY BE INACCURATE!!!"$" is an indication the sensor requires maintenance.
Text:PAOU 170907Z AUTO 15010KT 7SM -RA OVC028 11/10 A2980 RMK AO2 PNO $
Temperature: 11.0°C ( 52°F)
Dewpoint: 10.0°C ( 50°F) [RH = 94%]
Pressure (altimeter):29.80 inches Hg (1009.2 mb)
Winds:from the SSE (150 degrees) at 12 MPH (10 knots; 5.1 m/s)
Visibility: 7 sm ( 11 km)
Ceiling:2800 feet AGL
Clouds: overcast cloud deck at 2800 feet AGL
Weather:-RA (light rain)
QC Flag:automated observation with no human augmentation; SOME DATA ABOVE MAY BE INACCURATE!!!"$" is an indication the sensor requires maintenance.
Text:PAOU 170856Z AUTO 18008KT 10SM -RA OVC030 11/10 A2980 RMK AO2 RAB08 SLP092 6//// T01110100 401390111 58020 PNO $
Temperature: 11.1°C ( 52°F)
Dewpoint: 10.0°C ( 50°F) [RH = 93%]
Pressure (altimeter):29.80 inches Hg (1009.2 mb) [Sea level pressure: 1009.2 mb]
Winds:from the S (180 degrees) at 9 MPH (8 knots; 4.1 m/s)
Visibility:10 or more sm (16+ km)
Ceiling:3000 feet AGL
Clouds: overcast cloud deck at 3000 feet AGL
Weather:-RA (light rain)
QC Flag:automated observation with no human augmentation; SOME DATA ABOVE MAY BE INACCURATE!!!"$" is an indication the sensor requires maintenance.
Text:PAOU 170756Z AUTO 13009KT 10SM BKN048 OVC060 12/10 A2983 RMK AO2 RAE24 SLP100 T01220100 PNO $
Temperature: 12.2°C ( 54°F)
Dewpoint: 10.0°C ( 50°F) [RH = 86%]
Pressure (altimeter):29.83 inches Hg (1010.2 mb) [Sea level pressure: 1010.0 mb]
Winds:from the SE (130 degrees) at 10 MPH (9 knots; 4.6 m/s)
Visibility:10 or more sm (16+ km)
Ceiling:4800 feet AGL
Clouds: broken clouds at 4800 feet AGL, overcast cloud deck at 6000 feet AGL
QC Flag:automated observation with no human augmentation; SOME DATA ABOVE MAY BE INACCURATE!!!"$" is an indication the sensor requires maintenance.
Text:PAOU 170656Z AUTO 13008KT 10SM -RA SCT075 OVC090 12/09 A2984 RMK AO2 RAB47 SLP106 T01170094 PNO $
Temperature: 11.7°C ( 53°F)
Dewpoint: 9.4°C ( 49°F) [RH = 86%]
Pressure (altimeter):29.84 inches Hg (1010.6 mb) [Sea level pressure: 1010.6 mb]
Winds:from the SE (130 degrees) at 9 MPH (8 knots; 4.1 m/s)
Visibility:10 or more sm (16+ km)
Ceiling:9000 feet AGL
Clouds: scattered clouds at 7500 feet AGL, overcast cloud deck at 9000 feet AGL
Weather:-RA (light rain)
QC Flag:automated observation with no human augmentation; SOME DATA ABOVE MAY BE INACCURATE!!!"$" is an indication the sensor requires maintenance.

TAF for:PAOU (Nelson Lagoon Arpt, AK, US)
Text:No data found